Las Vegas, NV

11:04 AM PDT on October 01, 2016 (GMT -0700)
McCarran International | | Change Station
Active Advisory: Fire Weather Warning

Elev 2178 ft 36.07 °N, 115.16 °W | Updated 8 minutes ago

Partly Cloudy
Partly Cloudy
87 °F
Feels Like 87 °F
N
14
Wind Variable Wind from South
Gusts 20 mph

Today
High -- | Low -- °F
--% Chance of Precip.
Yesterday
High -- | Low -- °F
Precip. -- in
Pressure 29.92 in
Visibility 10.0 miles
Clouds Few 11000 ft
Dew Point 39 °F
Humidity 18%
Rainfall 0.00 in
Snow Depth Not available.
6:36 AM 6:23 PM
New Moon, 1% visible
METAR KLAS 011756Z 19012G17KT 10SM FEW110 31/04 A2999 RMK AO2 SLP131 T03060039 10306 20233 50001
Pressure 29.92 in
Visibility 10.0 miles
Clouds Few 11000 ft
Dew Point 39 °F
Humidity 18%
Rainfall 0.00 in
Snow Depth Not available.
6:36 AM 6:23 PM
New Moon, 1% visible
METAR KLAS 011756Z 19012G17KT 10SM FEW110 31/04 A2999 RMK AO2 SLP131 T03060039 10306 20233 50001

10-Day Weather Forecast

Almanac

Astronomy

Oct. 01, 2016 Rise Set
Actual Time
Civil Twilight
Nautical Twilight
Astronomical Twilight
Moon
Length of Visible Light
Length of Day
Tomorrow will be .
, % of the Moon is Illuminated

Today's Extremes

State Highs State Lows

Community

WunderPhotos

Upload Photos

1,942,974 photos uploaded!

WunderBlog® & News

Nearby

Air Quality

  Air Quality AQ Index Pollutant
Not available.

Snow Depth

Station Depth Elevation

Earthquake Activity

City Distance Mag. Time & Date
Minimum magnitude displayed is 2.5.

Coastal Water Temperatures

Place Temperature

Stations

Nearby Weather Stations

Station Location Temp. Windchill Dew Point Humidity Wind Precip. Elev Updated Type
                   

Watches & Warnings

Fire Weather Warning
Issued: 3:01 AM PDT Oct. 1, 2016 – National Weather Service

... Red flag warning remains in effect from 11 am to 11 PM PDT
Sunday for gusty winds and low relative humidity...

* affected area... in California... fire weather zone 226 and zone
227. In Nevada... fire weather zone 462... 463... 464... 465 and
466.

* Timing... late Sunday morning through Sunday evening.

* Wind... gusty southwest winds of 15 to 25 mph with gusts to 40
mph are expected to develop during the late morning and
persist through the evening. Wind gusts across parts of the
Owens Valley and Spring Mountains may exceed 50 mph.

* Minimum humidity... 8 to 14 percent.

Precautionary/preparedness actions...

A red flag warning means that critical fire weather conditions
are either occurring now... .or are expected to occur soon. A
combination of strong winds... low relative humidity... and warm
temperatures can contribute to extreme fire behavior.